Saint John, IN (46373)

2:56 AM CST on February 21, 2017 (GMT -0600)
Willow Ridge | | Change Station
Active Advisory: Special Weather Statement

Elev 719 ft 41.46 °N, 87.45 °W | Updated 4 seconds ago

Overcast
Overcast
54.9 °F
Feels Like 54.9 °F
N
4.0
Wind Variable Wind from SW

Today
High -- | Low -- °F
--% Chance of Precip.
Yesterday
High -- | Low -- °F
Precip. -- in
Pressure 29.92 in
Visibility 10.0 miles
Clouds Overcast 3800 ft
Dew Point 44 °F
Humidity 69%
Rainfall 0.00 in
Snow Depth Not available.
6:36 AM 5:31 PM
Waning Crescent, 27% visible
METAR KIGQ 210835Z AUTO 18008KT 10SM OVC038 13/10 A2992 RMK AO2 T01270095
Pressure 29.92 in
Visibility 10.0 miles
Clouds Overcast 3800 ft
Dew Point 44 °F
Humidity 69%
Rainfall 0.00 in
Snow Depth Not available.
6:36 AM 5:31 PM
Waning Crescent, 27% visible
METAR KIGQ 210835Z AUTO 18008KT 10SM OVC038 13/10 A2992 RMK AO2 T01270095

Get Your Daily Forecast Email!

Thanks for signing up!

Be on the lookout for a verification email in your inbox.

You'll start receiving the daily forecast at 8 AM.

×

10-Day Weather Forecast

Almanac

Astronomy

Feb. 21, 2017 Rise Set
Actual Time
Civil Twilight
Nautical Twilight
Astronomical Twilight
Moon
Length of Visible Light
Length of Day
Tomorrow will be .
, % of the Moon is Illuminated

Today's Extremes

State Highs State Lows

Community

WunderPhotos

Upload Photos

1,962,540 photos uploaded!

WunderBlog® & News

Nearby

Air Quality

  Air Quality AQ Index Pollutant
Not available.

Snow Depth

Station Depth Elevation

Earthquake Activity

City Distance Mag. Time & Date
Minimum magnitude displayed is 2.5.

Coastal Water Temperatures

Place Temperature

Stations

Nearby Weather Stations

Station Location Temp. Windchill Dew Point Humidity Wind Precip. Elev Updated Type
                   

Watches & Warnings

Special Weather Statement
Issued: 2:50 AM CST Feb. 21, 2017 – National Weather Service

... Small Craft Advisory is cancelled...

The National Weather Service in Chicago has cancelled the Small
Craft Advisory.

Winds and waves no longer pose a risk to small craft; therefore,
the Small Craft Advisory was cancelled.



Jee